Time;durP1;ratioP1;P1;durP2;ratioP2;P2;SDS_P1;SDS_P2;PMS_P1;PMS_P2;Temp;Humidity;BMP_temperature;BMP_pressure;BME280_temperature;BME280_humidity;BME280_pressure;Samples;Min_cycle;Max_cycle;Signal;HPM_P1;HPM_P2
2023/04/02 00:02:20;;;;;;;11.32;3.10;;;6.70;99.90;;;;;;4917027;29;20043;-68
2023/04/02 00:05:15;;;;;;;8.73;2.92;;;6.60;99.90;;;;;;4901531;29;20021;-68
2023/04/02 00:07:43;;;;;;;7.47;2.70;;;6.50;99.90;;;;;;4915792;29;20037;-68
2023/04/02 00:10:28;;;;;;;7.63;2.35;;;6.50;99.90;;;;;;4916864;29;20036;-69
2023/04/02 00:13:23;;;;;;;6.72;2.65;;;6.60;99.90;;;;;;4916621;29;20493;-67
2023/04/02 00:15:55;;;;;;;8.13;2.70;;;6.60;99.90;;;;;;4912773;29;20032;-68
2023/04/02 00:18:21;;;;;;;9.73;2.45;;;6.60;99.90;;;;;;4900124;29;20367;-69
2023/04/02 00:21:18;;;;;;;4.88;2.03;;;6.50;99.90;;;;;;4917121;29;20506;-69
2023/04/02 00:23:44;;;;;;;6.50;1.95;;;6.40;99.90;;;;;;4916393;29;20028;-69
2023/04/02 00:26:32;;;;;;;6.15;1.77;;;6.30;99.90;;;;;;4916526;29;20114;-69
2023/04/02 00:29:04;;;;;;;9.32;2.92;;;6.30;99.90;;;;;;4916385;29;20047;-68
2023/04/02 00:31:31;;;;;;;7.20;2.67;;;6.30;99.90;;;;;;4916190;29;20116;-69
2023/04/02 00:33:59;;;;;;;6.30;2.05;;;6.30;99.90;;;;;;4916339;29;20044;-68
2023/04/02 00:36:28;;;;;;;;;;;6.30;99.90;;;;;;4916626;29;20055;-69
2023/04/02 00:38:57;;;;;;;3.53;1.63;;;6.30;99.90;;;;;;4899955;29;20345;-68
2023/04/02 00:41:29;;;;;;;6.00;1.95;;;6.30;99.90;;;;;;4899311;29;20470;-69
2023/04/02 00:43:57;;;;;;;5.43;1.83;;;6.30;99.90;;;;;;4915904;29;20036;-68
2023/04/02 00:46:30;;;;;;;7.82;1.67;;;6.30;99.90;;;;;;4899342;29;20045;-68
2023/04/02 00:49:09;;;;;;;8.13;2.35;;;6.20;99.90;;;;;;4915943;29;20040;-69
2023/04/02 00:51:59;;;;;;;10.23;2.20;;;6.20;99.90;;;;;;4916085;29;20040;-69
2023/04/02 00:54:30;;;;;;;6.90;2.10;;;6.20;99.90;;;;;;4903521;29;20051;-68
2023/04/02 00:56:57;;;;;;;8.45;1.83;;;6.20;99.90;;;;;;4916305;29;20378;-68
2023/04/02 00:59:32;;;;;;;7.32;2.13;;;6.20;99.90;;;;;;4915923;29;20371;-67
2023/04/02 01:02:13;;;;;;;8.48;1.95;;;6.10;99.90;;;;;;4915679;29;20486;-68
2023/04/02 01:04:40;;;;;;;6.85;2.00;;;6.40;99.90;;;;;;4915734;29;20084;-69
2023/04/02 01:07:10;;;;;;;4.60;1.60;;;6.30;99.90;;;;;;4915647;29;20032;-68
2023/04/02 01:09:41;;;;;;;8.35;2.97;;;6.40;99.90;;;;;;4915651;29;20024;-68
2023/04/02 01:12:33;;;;;;;9.23;3.38;;;6.40;99.90;;;;;;4913959;29;20051;-68
2023/04/02 01:15:16;;;;;;;13.48;3.47;;;6.30;99.90;;;;;;4915449;29;20127;-68
2023/04/02 01:18:01;;;;;;;5.07;1.92;;;6.40;99.90;;;;;;4915153;29;20040;-68
2023/04/02 01:20:55;;;;;;;5.35;2.67;;;6.40;99.90;;;;;;4914204;29;20028;-67
2023/04/02 01:23:38;;;;;;;7.07;2.22;;;6.50;99.90;;;;;;4914118;29;20032;-68
2023/04/02 01:26:26;;;;;;;6.22;1.80;;;6.40;99.90;;;;;;4915138;29;20032;-68
2023/04/02 01:29:00;;;;;;;5.05;1.88;;;6.30;99.90;;;;;;4914204;29;20338;-68
2023/04/02 01:31:36;;;;;;;10.88;1.95;;;6.30;99.90;;;;;;5128529;27;20462;-69
2023/04/02 01:34:07;;;;;;;7.53;2.00;;;6.30;99.90;;;;;;5124277;28;20031;-68
2023/04/02 01:36:59;;;;;;;7.03;1.83;;;6.30;99.90;;;;;;5108182;28;20497;-69
2023/04/02 01:39:46;;;;;;;3.42;1.60;;;6.40;99.90;;;;;;5092141;28;20044;-70
2023/04/02 01:42:17;;;;;;;8.70;2.05;;;6.40;99.90;;;;;;5109242;28;20042;-69
2023/04/02 01:44:50;;;;;;;4.90;1.63;;;6.40;99.90;;;;;;5108035;28;20035;-68
2023/04/02 01:47:27;;;;;;;5.40;1.77;;;6.40;99.90;;;;;;5107849;28;20477;-68
2023/04/02 01:50:00;;;;;;;8.02;1.42;;;6.40;99.90;;;;;;5108007;28;20453;-68
2023/04/02 01:52:37;;;;;;;7.55;1.63;;;6.40;99.90;;;;;;5106788;28;20352;-69
2023/04/02 01:55:04;;;;;;;6.35;1.75;;;6.40;99.70;;;;;;5108035;28;20023;-68
2023/04/02 01:57:30;;;;;;;6.28;1.45;;;6.30;99.40;;;;;;5107770;27;20031;-68
2023/04/02 01:59:57;;;;;;;4.25;1.40;;;6.20;99.70;;;;;;5108278;28;20404;-68
2023/04/02 02:02:23;;;;;;;4.82;1.50;;;6.10;99.40;;;;;;5107805;28;20460;-69
2023/04/02 02:04:49;;;;;;;4.07;1.42;;;6.10;99.40;;;;;;5107587;28;20047;-68
2023/04/02 02:07:19;;;;;;;7.13;1.48;;;6.10;99.40;;;;;;5107642;28;20115;-68
2023/04/02 02:09:46;;;;;;;5.32;1.15;;;6.10;99.40;;;;;;5107407;28;20032;-67
2023/04/02 02:12:13;;;;;;;6.78;1.48;;;6.10;99.40;;;;;;5108016;28;20081;-68
2023/04/02 02:14:46;;;;;;;2.10;1.10;;;6.10;99.20;;;;;;5123915;28;20038;-68
2023/04/02 02:17:15;;;;;;;3.13;1.05;;;6.00;98.80;;;;;;5107526;28;20059;-68
2023/04/02 02:19:48;;;;;;;6.95;1.35;;;6.00;98.90;;;;;;5107406;28;20259;-67
2023/04/02 02:22:31;;;;;;;3.13;1.20;;;6.00;99.10;;;;;;5106864;28;20481;-68
2023/04/02 02:25:00;;;;;;;7.55;1.50;;;6.00;98.90;;;;;;5107014;28;20036;-68
2023/04/02 02:27:26;;;;;;;4.78;1.52;;;6.00;98.80;;;;;;5107085;28;20027;-69
2023/04/02 02:29:57;;;;;;;3.67;1.17;;;6.00;98.80;;;;;;5107373;28;20048;-67
2023/04/02 02:32:28;;;;;;;5.40;1.20;;;6.00;98.50;;;;;;5107110;28;20028;-68
2023/04/02 02:35:36;;;;;;;3.25;1.13;;;5.90;98.50;;;;;;5107049;28;20024;-68
2023/04/02 02:38:15;;;;;;;4.00;1.02;;;5.90;98.60;;;;;;5106976;28;20346;-69
2023/04/02 02:40:46;;;;;;;4.15;1.25;;;5.90;98.70;;;;;;5105493;28;20059;-68
2023/04/02 02:43:15;;;;;;;4.55;1.13;;;5.90;98.40;;;;;;5092986;28;20082;-68
2023/04/02 02:45:42;;;;;;;3.17;0.80;;;5.90;98.60;;;;;;5093303;28;20036;-69
2023/04/02 02:48:14;;;;;;;2.67;1.23;;;5.90;98.50;;;;;;5093738;28;20031;-69
2023/04/02 02:50:41;;;;;;;2.45;1.00;;;5.80;98.30;;;;;;5093289;28;20689;-69
2023/04/02 02:53:16;;;;;;;3.65;1.20;;;5.80;98.40;;;;;;5093161;28;20020;-68
2023/04/02 02:55:42;;;;;;;4.72;0.95;;;5.70;98.50;;;;;;5093320;28;20032;-69
2023/04/02 02:58:39;;;;;;;2.63;1.02;;;5.80;98.50;;;;;;5093228;28;20051;-68
2023/04/02 03:01:05;;;;;;;5.50;1.30;;;5.70;98.40;;;;;;5084019;28;20088;-68
2023/04/02 03:03:33;;;;;;;4.22;1.20;;;5.70;98.40;;;;;;5093268;28;20350;-69
2023/04/02 03:06:09;;;;;;;8.55;1.40;;;5.70;98.60;;;;;;5093554;28;20072;-71
2023/04/02 03:08:45;;;;;;;10.48;1.50;;;5.70;98.60;;;;;;5092061;28;20028;-70
2023/04/02 03:11:32;;;;;;;7.88;1.23;;;5.60;98.40;;;;;;5092995;28;20033;-68
2023/04/02 03:14:11;;;;;;;3.70;1.27;;;5.60;98.30;;;;;;5092536;28;20086;-69
2023/04/02 03:16:43;;;;;;;2.80;1.13;;;5.60;98.50;;;;;;5091793;28;20128;-67
2023/04/02 03:19:33;;;;;;;5.72;1.25;;;5.80;98.50;;;;;;5092625;28;20119;-68
2023/04/02 03:22:03;;;;;;;4.55;1.13;;;5.70;98.40;;;;;;5092728;28;20487;-69
2023/04/02 03:24:44;;;;;;;4.15;0.95;;;5.70;98.40;;;;;;5092693;28;20116;-69
2023/04/02 03:27:15;;;;;;;5.00;1.20;;;5.80;98.30;;;;;;5093260;28;20052;-69
2023/04/02 03:29:48;;;;;;;6.32;1.17;;;5.80;98.10;;;;;;5092175;28;20512;-69
2023/04/02 03:32:22;;;;;;;4.32;1.25;;;5.80;98.00;;;;;;5092382;28;20466;-69
2023/04/02 03:35:30;;;;;;;4.55;1.20;;;5.70;97.90;;;;;;5092055;28;20024;-70
2023/04/02 03:38:17;;;;;;;4.97;1.30;;;5.70;98.00;;;;;;5091455;28;20048;-69
2023/04/02 03:41:12;;;;;;;5.30;1.45;;;5.70;97.90;;;;;;5092563;28;20365;-69
2023/04/02 03:43:53;;;;;;;3.90;0.80;;;5.80;98.10;;;;;;5092281;28;20167;-68
2023/04/02 03:46:28;;;;;;;4.28;1.10;;;5.80;98.00;;;;;;5091140;28;20077;-69
2023/04/02 03:48:57;;;;;;;7.20;1.17;;;5.80;97.90;;;;;;5092215;28;20354;-67
2023/04/02 03:51:35;;;;;;;3.13;0.75;;;5.70;97.50;;;;;;5091894;28;20020;-70
2023/04/02 03:54:01;;;;;;;4.38;1.13;;;5.80;97.50;;;;;;5091644;28;20081;-69
2023/04/02 03:56:31;;;;;;;4.93;1.20;;;5.70;97.20;;;;;;5092018;28;20024;-68
2023/04/02 03:59:23;;;;;;;4.40;1.40;;;5.60;97.20;;;;;;5091981;28;20078;-68
2023/04/02 04:02:31;;;;;;;7.38;1.23;;;5.70;97.40;;;;;;5091949;28;20029;-68
2023/04/02 04:04:57;;;;;;;7.63;0.90;;;5.70;97.50;;;;;;5091637;28;20051;-67
2023/04/02 04:07:34;;;;;;;3.22;0.93;;;5.70;97.40;;;;;;5091749;28;20475;-68
2023/04/02 04:10:01;;;;;;;4.85;1.42;;;5.70;97.10;;;;;;5091991;28;20071;-69
2023/04/02 04:12:42;;;;;;;4.03;1.15;;;5.70;97.00;;;;;;5091901;28;20097;-68
2023/04/02 04:15:35;;;;;;;9.82;1.80;;;5.60;96.70;;;;;;5091106;28;20024;-68
2023/04/02 04:18:20;;;;;;;3.80;1.23;;;5.60;96.70;;;;;;5091987;28;20024;-68
2023/04/02 04:21:01;;;;;;;3.60;1.80;;;5.60;96.90;;;;;;5091734;28;20445;-68
2023/04/02 04:23:34;;;;;;;3.40;0.95;;;5.60;97.00;;;;;;5091626;28;20054;-68
2023/04/02 04:26:23;;;;;;;4.05;1.15;;;5.70;96.90;;;;;;5091626;28;20035;-69
2023/04/02 04:29:18;;;;;;;4.90;1.17;;;5.70;97.10;;;;;;5091513;28;20035;-68
2023/04/02 04:31:54;;;;;;;5.57;1.00;;;5.70;96.90;;;;;;5091673;28;20047;-68
2023/04/02 04:34:28;;;;;;;8.50;1.48;;;5.70;96.90;;;;;;5091868;28;20024;-68
2023/04/02 04:37:00;;;;;;;5.50;1.40;;;5.60;96.90;;;;;;5091633;28;20024;-68
2023/04/02 04:39:51;;;;;;;3.20;0.80;;;5.70;97.10;;;;;;5090123;28;20338;-68
2023/04/02 04:42:24;;;;;;;8.23;1.30;;;5.60;96.90;;;;;;5091737;28;20043;-68
2023/04/02 04:45:07;;;;;;;2.55;0.90;;;5.60;96.80;;;;;;5091427;28;20082;-69
2023/04/02 04:47:41;;;;;;;1.95;0.90;;;5.60;96.90;;;;;;5091283;28;20149;-69
2023/04/02 04:50:24;;;;;;;8.27;0.93;;;5.60;96.70;;;;;;5091057;28;20035;-69
2023/04/02 04:52:50;;;;;;;1.20;0.77;;;5.60;96.80;;;;;;5091071;28;20440;-69
2023/04/02 04:55:38;;;;;;;1.15;0.70;;;5.60;96.50;;;;;;5090961;28;20106;-69
2023/04/02 04:58:18;;;;;;;3.92;1.05;;;5.60;96.40;;;;;;5090968;28;20024;-68
2023/04/02 05:00:55;;;;;;;2.28;0.80;;;5.60;96.20;;;;;;5089872;28;20043;-68
2023/04/02 05:03:42;;;;;;;4.47;1.58;;;5.60;96.30;;;;;;5090288;28;20028;-68
2023/04/02 05:06:37;;;;;;;8.13;1.10;;;5.60;96.30;;;;;;5091005;28;20103;-67
2023/04/02 05:09:13;;;;;;;13.00;1.08;;;5.70;96.20;;;;;;5071902;28;20028;-67
2023/04/02 05:12:11;;;;;;;4.57;1.08;;;5.60;96.10;;;;;;5089671;28;20116;-67
2023/04/02 05:14:47;;;;;;;3.58;0.90;;;5.50;95.70;;;;;;5070920;28;20032;-67
2023/04/02 05:17:32;;;;;;;5.43;1.38;;;5.50;95.90;;;;;;5090627;28;20035;-67
2023/04/02 05:20:39;;;;;;;3.03;0.73;;;5.40;95.80;;;;;;5090677;28;20028;-68
2023/04/02 05:23:27;;;;;;;3.97;1.17;;;5.50;96.10;;;;;;5066099;28;20115;-66
2023/04/02 05:26:12;;;;;;;4.20;1.00;;;5.40;95.90;;;;;;5090720;28;20039;-68
2023/04/02 05:28:49;;;;;;;2.42;0.93;;;5.40;95.60;;;;;;5090600;28;20485;-68
2023/04/02 05:31:26;;;;;;;2.35;0.75;;;5.50;95.80;;;;;;5090328;28;20304;-68
2023/04/02 05:33:54;;;;;;;3.53;1.03;;;5.40;95.50;;;;;;5090508;28;20059;-68
2023/04/02 05:36:28;;;;;;;5.68;1.13;;;5.40;95.40;;;;;;5090793;28;20028;-69
2023/04/02 05:38:55;;;;;;;10.07;1.05;;;5.40;95.50;;;;;;5090582;28;20040;-68
2023/04/02 05:41:39;;;;;;;4.45;1.02;;;5.40;95.40;;;;;;5090321;28;20477;-67
2023/04/02 05:44:27;;;;;;;6.65;1.40;;;5.50;95.60;;;;;;5090297;28;20032;-68
2023/04/02 05:46:57;;;;;;;;;;;5.60;95.60;;;;;;5090889;28;20367;-69
2023/04/02 05:49:26;;;;;;;7.00;0.98;;;5.60;95.60;;;;;;5090262;28;20000;-68
2023/04/02 05:51:55;;;;;;;5.35;1.00;;;5.50;95.40;;;;;;5090339;28;20060;-69
2023/04/02 05:54:33;;;;;;;5.82;1.30;;;5.60;95.60;;;;;;5090418;28;20062;-68
2023/04/02 05:57:03;;;;;;;;;;;5.60;95.70;;;;;;5091257;28;20016;-68
2023/04/02 05:59:36;;;;;;;2.28;0.75;;;5.60;95.20;;;;;;5090311;28;20002;-68
2023/04/02 06:02:35;;;;;;;2.97;0.90;;;5.50;95.20;;;;;;5090217;28;20480;-69
2023/04/02 06:05:14;;;;;;;6.70;0.85;;;5.60;95.40;;;;;;5090343;28;20084;-68
2023/04/02 06:07:52;;;;;;;3.15;0.60;;;5.60;95.40;;;;;;5090114;28;20055;-68
2023/04/02 06:10:22;;;;;;;3.08;0.90;;;5.70;95.70;;;;;;5088905;28;20032;-67
2023/04/02 06:13:02;;;;;;;7.75;0.98;;;5.80;96.10;;;;;;5089015;28;20119;-68
2023/04/02 06:15:28;;;;;;;1.98;0.80;;;5.80;95.50;;;;;;5090158;28;20066;-68
2023/04/02 06:18:15;;;;;;;3.08;0.70;;;5.80;95.40;;;;;;5093535;28;20069;-67
2023/04/02 06:20:41;;;;;;;3.70;0.80;;;5.80;95.50;;;;;;5093757;28;20035;-68
2023/04/02 06:23:34;;;;;;;6.43;1.10;;;5.90;95.20;;;;;;5093739;28;20115;-68
2023/04/02 06:26:34;;;;;;;5.10;1.20;;;5.90;95.40;;;;;;5093846;28;20028;-67
2023/04/02 06:29:21;;;;;;;9.93;4.50;;;6.00;95.40;;;;;;5093858;28;20111;-69
2023/04/02 06:31:55;;;;;;;3.63;0.88;;;6.00;95.00;;;;;;5093801;28;20109;-68
2023/04/02 06:34:23;;;;;;;5.88;1.10;;;5.80;94.80;;;;;;5093692;28;20032;-68
2023/04/02 06:36:50;;;;;;;;;;;5.80;95.00;;;;;;5093913;28;20119;-68
2023/04/02 06:39:21;;;;;;;3.08;0.70;;;5.80;94.80;;;;;;5093925;28;19919;-68
2023/04/02 06:42:18;;;;;;;2.40;0.73;;;5.80;94.80;;;;;;5093616;28;20032;-68
2023/04/02 06:44:44;;;;;;;3.80;1.13;;;5.80;95.00;;;;;;5092982;28;20029;-68
2023/04/02 06:47:32;;;;;;;4.85;1.20;;;5.90;95.00;;;;;;5092116;28;20039;-68
2023/04/02 06:50:17;;;;;;;6.18;0.85;;;6.00;95.20;;;;;;5092255;28;20032;-68
2023/04/02 06:52:52;;;;;;;4.07;1.10;;;6.00;95.00;;;;;;5093401;28;20024;-68
2023/04/02 06:55:48;;;;;;;3.53;0.98;;;6.00;95.20;;;;;;5093142;28;20032;-69
2023/04/02 06:58:15;;;;;;;4.65;1.15;;;6.10;95.20;;;;;;5093268;28;20024;-69
2023/04/02 07:00:44;;;;;;;8.52;1.95;;;6.10;95.30;;;;;;5093042;28;20115;-69
2023/04/02 07:03:28;;;;;;;6.82;1.23;;;6.20;95.40;;;;;;5093720;28;20020;-68
2023/04/02 07:05:55;;;;;;;3.80;1.27;;;6.20;95.20;;;;;;5093194;28;20055;-68
2023/04/02 07:08:21;;;;;;;4.53;0.98;;;6.30;95.30;;;;;;5092944;28;20031;-68
2023/04/02 07:10:47;;;;;;;7.20;1.15;;;6.20;95.20;;;;;;5092746;28;20123;-68
2023/04/02 07:13:18;;;;;;;7.93;1.10;;;6.30;95.30;;;;;;5092862;28;20108;-68
2023/04/02 07:15:45;;;;;;;4.65;1.35;;;6.30;95.20;;;;;;5092862;28;20048;-70
2023/04/02 07:18:28;;;;;;;4.78;1.50;;;6.30;95.10;;;;;;5093139;28;20028;-70
2023/04/02 07:20:55;;;;;;;5.90;1.20;;;6.30;95.30;;;;;;5092968;28;20381;-69
2023/04/02 07:23:21;;;;;;;4.60;1.35;;;6.30;95.10;;;;;;5092641;28;20036;-67
2023/04/02 07:25:55;;;;;;;6.90;1.02;;;6.30;95.20;;;;;;5092632;28;20470;-67
2023/04/02 07:28:22;;;;;;;4.40;0.90;;;6.30;95.00;;;;;;5092591;28;20357;-67
2023/04/02 07:30:47;;;;;;;7.38;1.10;;;6.30;94.90;;;;;;5091158;28;20039;-68
2023/04/02 07:33:18;;;;;;;3.75;0.88;;;6.30;95.00;;;;;;5093093;28;20028;-69
2023/04/02 07:35:44;;;;;;;3.40;0.98;;;6.30;94.80;;;;;;5091344;28;20406;-68
2023/04/02 07:38:10;;;;;;;5.80;0.80;;;6.20;94.90;;;;;;5092258;28;20032;-68
2023/04/02 07:40:36;;;;;;;2.65;1.00;;;6.30;95.20;;;;;;5092150;28;20128;-67
2023/04/02 07:43:02;;;;;;;5.97;1.15;;;6.30;95.20;;;;;;5090976;28;20433;-67
2023/04/02 07:45:27;;;;;;;1.77;0.90;;;6.40;95.30;;;;;;5092100;28;20020;-67
2023/04/02 07:47:53;;;;;;;5.28;0.82;;;6.40;95.10;;;;;;5092678;28;20093;-65
2023/04/02 07:50:19;;;;;;;4.47;1.20;;;6.40;95.10;;;;;;5090900;28;20043;-66
2023/04/02 07:52:45;;;;;;;1.77;0.90;;;6.40;95.00;;;;;;5091071;28;20428;-67
2023/04/02 07:55:13;;;;;;;4.50;1.33;;;6.30;94.90;;;;;;5091998;28;20032;-66
2023/04/02 07:57:48;;;;;;;3.10;0.98;;;6.30;95.00;;;;;;5091999;28;20031;-67
2023/04/02 08:00:14;;;;;;;3.75;1.13;;;6.40;95.20;;;;;;5092450;28;20020;-68
2023/04/02 08:02:40;;;;;;;3.13;0.82;;;6.40;94.80;;;;;;5090713;28;20040;-67
2023/04/02 08:05:07;;;;;;;6.60;0.63;;;6.50;94.90;;;;;;5090714;28;20032;-69
2023/04/02 08:07:33;;;;;;;5.38;1.10;;;6.50;94.90;;;;;;5090619;28;20058;-70
2023/04/02 08:09:59;;;;;;;4.93;1.00;;;6.60;94.90;;;;;;5091713;28;20032;-72
2023/04/02 08:12:25;;;;;;;5.25;1.17;;;6.50;94.70;;;;;;5092014;28;20429;-69
2023/04/02 08:14:50;;;;;;;4.55;1.45;;;6.60;95.10;;;;;;5092092;28;20020;-70
2023/04/02 08:17:16;;;;;;;1.98;1.00;;;6.60;94.90;;;;;;5090497;28;20046;-70
2023/04/02 08:19:43;;;;;;;3.63;0.70;;;6.60;95.00;;;;;;5071410;28;20476;-71
2023/04/02 08:22:09;;;;;;;5.65;1.20;;;6.60;95.00;;;;;;5071433;28;20029;-71
2023/04/02 08:24:35;;;;;;;3.53;0.88;;;6.60;94.90;;;;;;5071126;28;20498;-71
2023/04/02 08:27:01;;;;;;;1.45;0.60;;;6.60;94.80;;;;;;5071555;28;20027;-70
2023/04/02 08:29:30;;;;;;;3.60;1.10;;;6.80;95.00;;;;;;5070939;28;20033;-69
2023/04/02 08:31:59;;;;;;;3.22;0.70;;;6.80;94.80;;;;;;5071325;28;20032;-69
2023/04/02 08:34:26;;;;;;;3.50;1.10;;;6.80;94.80;;;;;;5069996;28;20032;-69
2023/04/02 08:36:55;;;;;;;5.22;1.13;;;6.90;94.80;;;;;;5069761;28;20024;-69
2023/04/02 08:39:22;;;;;;;4.57;1.02;;;6.90;94.50;;;;;;5070327;28;20047;-68
2023/04/02 08:42:21;;;;;;;2.88;1.17;;;6.80;94.50;;;;;;5071373;28;20044;-68
2023/04/02 08:45:22;;;;;;;6.15;0.88;;;6.80;94.50;;;;;;5070973;28;20052;-68
2023/04/02 08:47:50;;;;;;;2.15;0.65;;;6.90;94.80;;;;;;5071102;28;20039;-68
2023/04/02 08:50:36;;;;;;;4.13;0.90;;;6.90;94.60;;;;;;5070848;28;20067;-69
2023/04/02 08:53:24;;;;;;;2.15;0.90;;;7.00;94.50;;;;;;5070856;28;20130;-68
2023/04/02 08:56:16;;;;;;;2.83;1.10;;;6.90;94.20;;;;;;5070700;28;20035;-68
2023/04/02 08:58:58;;;;;;;2.92;0.57;;;6.90;94.20;;;;;;5070887;28;20033;-69
2023/04/02 09:01:46;;;;;;;5.15;0.98;;;7.00;94.10;;;;;;5069812;28;20029;-67
2023/04/02 09:04:21;;;;;;;6.25;1.23;;;6.90;94.10;;;;;;5070697;28;20021;-66
2023/04/02 09:06:48;;;;;;;9.50;1.05;;;6.90;94.10;;;;;;5070698;28;20024;-70
2023/04/02 09:09:16;;;;;;;2.13;1.10;;;6.90;93.90;;;;;;5071405;28;20021;-70
2023/04/02 09:11:57;;;;;;;6.32;1.27;;;7.00;94.00;;;;;;5070847;28;20029;-70
2023/04/02 09:14:42;;;;;;;7.30;1.42;;;7.00;93.80;;;;;;5070572;28;20060;-70
2023/04/02 09:17:18;;;;;;;4.88;1.15;;;7.00;93.90;;;;;;5070569;28;20033;-68
2023/04/02 09:20:00;;;;;;;4.93;0.82;;;7.10;93.90;;;;;;5070736;28;20139;-71
2023/04/02 09:22:31;;;;;;;3.58;1.15;;;7.10;93.90;;;;;;5070757;28;20068;-69
2023/04/02 09:25:01;;;;;;;2.00;0.80;;;7.20;94.10;;;;;;5070398;28;20086;-69
2023/04/02 09:27:30;;;;;;;4.03;0.88;;;7.10;93.70;;;;;;5070682;28;20073;-72
2023/04/02 09:30:11;;;;;;;4.03;0.80;;;7.20;93.90;;;;;;5069593;28;20100;-70
2023/04/02 09:32:49;;;;;;;2.85;0.95;;;7.20;93.90;;;;;;5070240;28;20029;-70
2023/04/02 09:35:18;;;;;;;2.78;0.85;;;7.30;93.90;;;;;;5069238;28;20039;-72
2023/04/02 09:37:44;;;;;;;1.35;0.80;;;7.30;94.00;;;;;;5070349;28;20332;-71
2023/04/02 09:40:16;;;;;;;4.85;1.25;;;7.30;93.70;;;;;;5070096;28;20415;-70
2023/04/02 09:42:42;;;;;;;7.25;1.10;;;7.40;94.00;;;;;;5068836;28;20481;-68
2023/04/02 09:45:23;;;;;;;9.63;1.58;;;7.40;94.10;;;;;;5070662;28;20270;-70
2023/04/02 09:47:51;;;;;;;4.55;0.90;;;7.40;93.80;;;;;;5070280;28;20119;-68
2023/04/02 09:50:24;;;;;;;2.67;0.85;;;7.40;93.80;;;;;;5070184;28;20029;-69
2023/04/02 09:52:50;;;;;;;4.65;1.20;;;7.40;94.10;;;;;;5073243;28;20528;-73
2023/04/02 09:55:18;;;;;;;1.67;0.63;;;7.40;93.80;;;;;;5074078;28;20617;-68
2023/04/02 09:57:46;;;;;;;4.97;1.00;;;7.50;93.60;;;;;;5072885;28;20029;-69
2023/04/02 10:00:17;;;;;;;;;;;7.50;93.60;;;;;;5074984;28;20028;-68
2023/04/02 10:02:57;;;;;;;2.90;1.20;;;7.50;93.50;;;;;;5072806;28;20361;-69
2023/04/02 10:05:23;;;;;;;3.45;0.60;;;7.60;93.20;;;;;;5072848;28;20050;-68
2023/04/02 10:07:52;;;;;;;2.25;0.90;;;7.60;93.30;;;;;;5073759;28;20029;-69
2023/04/02 10:10:31;;;;;;;5.15;0.98;;;7.60;93.10;;;;;;5073807;28;20056;-70
2023/04/02 10:13:06;;;;;;;2.63;0.90;;;7.60;93.10;;;;;;5072282;28;20040;-69
2023/04/02 10:15:47;;;;;;;3.47;0.90;;;7.70;92.90;;;;;;5073584;28;20025;-69
2023/04/02 10:18:42;;;;;;;2.47;1.02;;;7.80;93.00;;;;;;5074641;28;20381;-70
2023/04/02 10:21:12;;;;;;;9.05;1.30;;;7.90;92.50;;;;;;5069876;28;20062;-70
2023/04/02 10:23:38;;;;;;;4.85;1.23;;;7.80;92.50;;;;;;5072333;28;20028;-70
2023/04/02 10:26:46;;;;;;;4.60;1.10;;;7.80;92.00;;;;;;5072321;28;20086;-70
2023/04/02 10:29:21;;;;;;;2.58;0.82;;;7.70;91.90;;;;;;5072094;28;20028;-69
2023/04/02 10:31:59;;;;;;;4.22;0.90;;;7.80;91.90;;;;;;5073090;28;20127;-70
2023/04/02 10:35:00;;;;;;;5.85;1.52;;;7.90;92.00;;;;;;5073406;28;20119;-70
2023/04/02 10:37:47;;;;;;;1.33;0.75;;;8.00;92.10;;;;;;5073192;28;20032;-70
2023/04/02 10:40:28;;;;;;;1.98;0.93;;;8.00;91.90;;;;;;5073115;28;20120;-71
2023/04/02 10:43:38;;;;;;;4.45;1.05;;;8.20;92.00;;;;;;5073328;28;20454;-70
2023/04/02 10:46:12;;;;;;;3.35;0.90;;;8.40;92.00;;;;;;5073453;28;20040;-70
2023/04/02 10:48:46;;;;;;;2.25;1.15;;;8.40;91.80;;;;;;5073152;28;20021;-70
2023/04/02 10:51:28;;;;;;;1.98;1.08;;;8.40;91.70;;;;;;5072530;28;20025;-69
2023/04/02 10:54:12;;;;;;;3.25;0.90;;;8.40;91.50;;;;;;5073533;28;20041;-70
2023/04/02 10:56:38;;;;;;;3.92;0.80;;;8.40;91.60;;;;;;5073130;28;20024;-70
2023/04/02 10:59:17;;;;;;;6.57;1.45;;;8.40;91.70;;;;;;5072879;28;20062;-69
2023/04/02 11:01:44;;;;;;;3.55;1.00;;;8.50;91.70;;;;;;5071969;28;20331;-70
2023/04/02 11:04:19;;;;;;;7.13;1.45;;;8.50;91.80;;;;;;5072512;28;20148;-70
2023/04/02 11:06:58;;;;;;;2.90;1.00;;;8.60;91.20;;;;;;5073026;28;20029;-69
2023/04/02 11:09:30;;;;;;;4.25;1.13;;;8.60;91.00;;;;;;5071740;28;20096;-70
2023/04/02 11:11:59;;;;;;;2.63;0.73;;;8.60;90.80;;;;;;5073125;28;20481;-71
2023/04/02 11:14:28;;;;;;;2.08;0.82;;;8.70;90.70;;;;;;5072585;28;20488;-70
2023/04/02 11:16:57;;;;;;;5.25;1.52;;;9.10;90.90;;;;;;5072540;28;20132;-70
2023/04/02 11:19:34;;;;;;;4.38;1.33;;;9.30;90.50;;;;;;5072542;28;20115;-70
2023/04/02 11:22:16;;;;;;;3.15;1.08;;;9.40;90.40;;;;;;5072416;28;20028;-70
2023/04/02 11:24:48;;;;;;;2.88;1.02;;;9.60;90.30;;;;;;5072868;28;20357;-70
2023/04/02 11:27:30;;;;;;;3.25;0.82;;;9.70;89.00;;;;;;5073244;28;20462;-69
2023/04/02 11:30:18;;;;;;;3.47;1.20;;;9.70;88.60;;;;;;5072343;28;20482;-71
2023/04/02 11:32:48;;;;;;;2.67;0.90;;;9.80;88.00;;;;;;5072455;28;20542;-70
2023/04/02 11:35:25;;;;;;;1.75;0.90;;;10.00;87.10;;;;;;5071206;28;20024;-68
2023/04/02 11:37:53;;;;;;;1.65;1.00;;;10.20;86.20;;;;;;5072154;28;20108;-70
2023/04/02 11:40:43;;;;;;;1.42;0.60;;;10.30;85.50;;;;;;5071318;28;20037;-70
2023/04/02 11:43:36;;;;;;;1.90;0.70;;;10.40;85.90;;;;;;5072279;28;20029;-71
2023/04/02 11:46:04;;;;;;;3.60;0.70;;;10.60;86.00;;;;;;5070320;28;20446;-70
2023/04/02 11:48:34;;;;;;;2.70;0.90;;;10.70;84.50;;;;;;5072452;28;20025;-70
2023/04/02 11:51:21;;;;;;;4.22;1.10;;;10.80;84.10;;;;;;5072475;28;20167;-71
2023/04/02 11:53:50;;;;;;;2.53;0.65;;;11.00;83.80;;;;;;5072144;28;20039;-69
2023/04/02 11:56:28;;;;;;;5.78;1.55;;;11.00;83.80;;;;;;5072060;28;20366;-70
2023/04/02 11:59:07;;;;;;;2.75;0.85;;;11.20;83.90;;;;;;5070668;28;20374;-71
2023/04/02 12:01:54;;;;;;;2.30;0.73;;;11.20;83.30;;;;;;5071879;28;20067;-70
2023/04/02 12:04:30;;;;;;;5.47;1.00;;;11.20;82.80;;;;;;5071758;28;20132;-70
2023/04/02 12:07:25;;;;;;;2.65;0.70;;;11.20;82.80;;;;;;5071783;28;20033;-70
2023/04/02 12:09:57;;;;;;;3.05;1.00;;;11.30;82.90;;;;;;5070469;28;20063;-71
2023/04/02 12:12:23;;;;;;;6.15;1.42;;;11.40;82.70;;;;;;5070791;28;20082;-70
2023/04/02 12:14:55;;;;;;;4.97;0.95;;;11.50;83.10;;;;;;5070136;28;20024;-71
2023/04/02 12:17:28;;;;;;;3.58;0.65;;;11.50;83.20;;;;;;5071416;28;20104;-70
2023/04/02 12:20:00;;;;;;;3.42;0.90;;;11.50;82.20;;;;;;5071563;28;20422;-69
2023/04/02 12:22:29;;;;;;;8.18;2.47;;;11.70;83.00;;;;;;5071347;28;20036;-71
2023/04/02 12:25:03;;;;;;;9.60;0.75;;;11.70;81.80;;;;;;5070257;28;20115;-71
2023/04/02 12:27:29;;;;;;;2.95;0.90;;;11.80;81.90;;;;;;5071295;28;20522;-71
2023/04/02 12:30:10;;;;;;;2.03;0.90;;;11.80;81.60;;;;;;5071529;28;20060;-71
2023/04/02 12:32:36;;;;;;;2.47;1.00;;;11.70;80.80;;;;;;5069905;28;20037;-70
2023/04/02 12:35:24;;;;;;;2.92;1.20;;;11.80;80.70;;;;;;5071213;28;20028;-70
2023/04/02 12:37:52;;;;;;;5.00;1.00;;;11.70;80.40;;;;;;5070958;28;20035;-71
2023/04/02 12:40:17;;;;;;;3.15;1.10;;;11.80;81.20;;;;;;5071248;28;20028;-70
2023/04/02 12:42:43;;;;;;;3.53;1.30;;;12.00;80.70;;;;;;5071127;28;20055;-71
2023/04/02 12:45:27;;;;;;;3.72;1.15;;;12.00;81.00;;;;;;5070522;28;20033;-70
2023/04/02 12:47:54;;;;;;;2.75;0.73;;;12.00;81.20;;;;;;5070183;28;20490;-71
2023/04/02 12:50:21;;;;;;;3.00;0.70;;;12.10;80.00;;;;;;5071300;28;20447;-70
2023/04/02 12:52:52;;;;;;;1.90;0.80;;;12.00;80.40;;;;;;5071475;28;20032;-71
2023/04/02 12:55:23;;;;;;;3.22;1.08;;;11.90;80.40;;;;;;5071029;28;20060;-71
2023/04/02 12:57:55;;;;;;;7.25;2.40;;;11.90;80.40;;;;;;5069990;28;20047;-70
2023/04/02 13:00:20;;;;;;;5.03;1.20;;;12.00;81.20;;;;;;5071538;28;20040;-70
2023/04/02 13:03:04;;;;;;;1.63;0.60;;;12.00;80.80;;;;;;5070893;28;20562;-71
2023/04/02 13:05:35;;;;;;;2.30;0.60;;;12.10;80.70;;;;;;5070723;28;20395;-70
2023/04/02 13:08:02;;;;;;;2.75;0.60;;;12.10;79.80;;;;;;5070818;28;20044;-71
2023/04/02 13:10:27;;;;;;;1.35;0.80;;;12.10;80.40;;;;;;5070681;28;20032;-71
2023/04/02 13:12:59;;;;;;;3.70;0.90;;;12.00;79.90;;;;;;5070777;28;20082;-70
2023/04/02 13:15:30;;;;;;;2.95;0.95;;;11.90;79.70;;;;;;5070928;28;20048;-70
2023/04/02 13:18:10;;;;;;;2.40;0.68;;;11.90;79.80;;;;;;5071170;28;20420;-70
2023/04/02 13:20:39;;;;;;;4.65;0.80;;;12.00;79.80;;;;;;5070598;28;20049;-70
2023/04/02 13:23:33;;;;;;;3.78;0.45;;;12.00;79.50;;;;;;5069251;28;20029;-70
2023/04/02 13:26:00;;;;;;;2.75;0.80;;;11.90;79.30;;;;;;5070259;28;20042;-71
2023/04/02 13:28:27;;;;;;;4.10;0.80;;;11.90;79.10;;;;;;5069325;28;20071;-70
2023/04/02 13:30:53;;;;;;;2.25;0.70;;;12.00;79.10;;;;;;5070055;28;20541;-70
2023/04/02 13:33:19;;;;;;;2.58;0.63;;;11.90;78.20;;;;;;5070870;28;20028;-71
2023/04/02 13:35:45;;;;;;;1.40;0.55;;;11.70;77.70;;;;;;5070309;28;20070;-71
2023/04/02 13:38:11;;;;;;;5.85;0.77;;;11.70;78.00;;;;;;5070119;28;20032;-70
2023/04/02 13:40:37;;;;;;;2.78;0.70;;;11.70;78.50;;;;;;5070186;28;20123;-71